Main page

Airports :

Rovaniemi, Finland

Rovaniemi Airport

latitude: 66-34N, longitude: 025-50E, elevation: 197 m

Current weather observation

The report was made 13 minutes ago, at 19:20 UTC
Wind 3 kt from the East
Temperature 1°C
Humidity 86%
Pressure 1042 hPa
Visibility 10 km or more
Overcast at a height of 2800 ft

METAR: EFRO 221920Z AUTO 08003KT 9999 OVC028 01/M01 Q1042

Time: 22:33 (19:33 UTC)


The report was made 1 hour and 59 minutes ago, at 17:34 UTC
Forecast valid from 22 at 18 UTC to 23 at 18 UTC
Wind 4 kt from the Southeast
Visibility 10 km or more
Overcast at a height of 3000 ft
Probability 30%
from 23 at 01 UTC to 23 at 07 UTC
Visibility: 1200 m
Broken clouds at a height of 100 ft
from 23 at 07 UTC to 23 at 09 UTC
Broken clouds at a height of 500 ft

TAF: EFRO 221734Z 2218/2318 13004KT 9999 OVC030 PROB30 2301/2307 1200 BR BKN001 TEMPO 2307/2309 BKN005


Weather observations and forecasts of more than 4000 airports (METAR and TAF reports).

The available stations are represented by yellow and red dots on the map.

Hover mouse over dot to see the name of the station.

Then click to see weather observations and forecasts.

To change the map : click on the green buttons with a black cross to zoom in, on the green button with a dash to zoom out, or on the green arrows for adjacent maps.